Andrews Air Force Base
KADW : now visible

Airfield :











YOU CAN JOIN US ON...

 
LOGIN :

Register | Disclaimer

   EN    FR    IT 

 









Legend :    VFR   Marginal VFR   IFR   Intensive IFR   Very Intensive IFR
Visi :
Ceiling :
>= 8 km
>= 3000ft
5 to 8 km
1000 to 3000 ft
1500m to 5 km
500 to 1000 ft
800 to 1500m
200 to 500 ft
< 800m
< 200 ft
Symbols :   Thunderstorms  Fog  Heavy snow  Heavy precipitations  Wind > 20 kt






- Airport Elevation : 280 ft


KADW - Andrews Air Force Base

CURRENT METAR :
  • 250756Z AUTO 07004KT 10SM OVC022 15/14 A3018 RMK AO2 CIG 021 RWY19L SLP226 T01540136 $

EXPIRED METARs :
  • 250656Z AUTO 13003KT 10SM OVC023 16/14 A3018 RMK AO2 CIG 022 RWY19L SLP226 T01550139 $
  • 250556Z AUTO 11003KT 10SM OVC022 16/15 A3018 RMK AO2 SLP226 T01580145 10167 20158 57009 $
  • 250511Z AUTO 09003KT 10SM OVC020 16/14 A3019 RMK AO2 SLP230 $

TAF AMD TAF KADW
Valid from the 25 at 05:00 until the 26 at 07:00 UTC


250538Z 2505/2607 10009KT 9999 OVC020 QNH3019INS
BECMG 2508/2509 08003KT 9999 BKN010 OVC030 QNH3022INS
BECMG 2514/2515 09003KT 9999 BKN020 QNH3016INS
BECMG 2521/2522 10009KT 9999 SCT025 QNH3013INS
BECMG 2604/2605 11003KT 9999 BKN025 QNH3019INS TX21/2519Z TN14/2509Z
KZDC FIR / North America



MET'MAP, your aeronautical weather chart ! - Copyright ORBIFLY December 2007 - Disclaimer

ORBIFLY MET'MAP TEAM :

Programming & Development : Alexandra Zaïnal
Concept & original design : Baudouin d'Aumeries
Assistance for programming : Marc-Olivier Méhu
Technical & hardware support : Manuel Goepfert

Contact : metmap@orbifly.com




SOURCES & CREDITS :

   NOAA       Earth
Advisory